Lawyersville, New York
Current Conditions -  °F | °C
As of 1:15 PM on Wednesday 28 Jan 2015 (Local Time) from KNY0 Reporting Station
Clear Clear  
Wind Chill:   Ceiling: Unl
Heat Index: 15°   Visibility: 10mi
Dew Point: -2°   Wind: 15mph
Humidity: 46%   Direction: 240°WSW
Pressure: 30.07"   Gusts: NA
Location:  42.6995°N, 74.5108°W
Report Text: KNY0 281815Z AUTO 24013KT 10SM CLR M09/M19 A3007 RMK AO2 T10921190
Loading
Personal Weather Stations






























Interactive Weather Map New forecast layout! Learn more

10-Day Weather Forecast

Advertisements
Track Severe Weather on mobile